createdAt,value
2023-02-04T00:00:41.551Z,16.90
2023-02-04T00:01:41.567Z,19.40
2023-02-04T00:02:41.611Z,16.40
2023-02-04T00:03:41.529Z,17.30
2023-02-04T00:04:41.520Z,16.90
2023-02-04T00:05:41.557Z,18.50
2023-02-04T00:06:41.507Z,16.60
2023-02-04T00:07:41.639Z,17.70
2023-02-04T00:08:41.500Z,17.50
2023-02-04T00:09:41.487Z,18.80
2023-02-04T00:10:41.495Z,19.50
2023-02-04T00:11:41.470Z,17.70
2023-02-04T00:12:41.464Z,19.40
2023-02-04T00:13:41.461Z,18.90
2023-02-04T00:14:41.449Z,19.00
2023-02-04T00:15:41.588Z,17.60
2023-02-04T00:16:41.434Z,18.20
2023-02-04T00:17:41.449Z,17.10
2023-02-04T00:18:41.420Z,19.00
2023-02-04T00:19:41.412Z,17.40
2023-02-04T00:20:41.404Z,19.80
2023-02-04T00:21:41.407Z,15.50
2023-02-04T00:22:41.387Z,19.80
2023-02-04T00:23:41.381Z,17.90
2023-02-04T00:24:41.374Z,17.90
2023-02-04T00:25:41.375Z,16.00
2023-02-04T00:26:41.369Z,18.00
2023-02-04T00:27:41.388Z,18.00
2023-02-04T00:28:41.348Z,22.20
2023-02-04T00:29:41.339Z,19.40
2023-02-04T00:30:41.335Z,21.70
2023-02-04T00:31:41.526Z,18.60
2023-02-04T00:32:41.317Z,17.40
2023-02-04T00:33:41.327Z,16.00
2023-02-04T00:34:41.303Z,18.70
2023-02-04T00:35:41.303Z,21.40
2023-02-04T00:36:41.292Z,17.00
2023-02-04T00:37:41.281Z,16.10
2023-02-04T00:38:41.272Z,17.60
2023-02-04T00:39:41.269Z,20.20
2023-02-04T00:40:41.268Z,17.80
2023-02-04T00:41:41.254Z,15.80
2023-02-04T00:42:41.241Z,16.40
2023-02-04T00:43:41.439Z,19.40
2023-02-04T00:44:41.232Z,16.20
2023-02-04T00:45:41.296Z,17.00
2023-02-04T00:46:41.216Z,17.20
2023-02-04T00:47:41.210Z,18.60
2023-02-04T00:48:41.200Z,18.90
2023-02-04T00:49:41.213Z,19.70
2023-02-04T00:50:41.184Z,18.90
2023-02-04T00:51:41.185Z,18.30
2023-02-04T00:52:41.188Z,15.80
2023-02-04T00:53:41.169Z,18.70
2023-02-04T00:54:41.162Z,21.70
2023-02-04T00:55:41.159Z,15.30
2023-02-04T00:56:41.143Z,18.80
2023-02-04T00:57:41.138Z,17.80
2023-02-04T00:58:41.126Z,19.80
2023-02-04T00:59:41.131Z,17.70
2023-02-04T01:00:41.195Z,18.40
2023-02-04T01:01:41.115Z,18.10
2023-02-04T01:02:41.186Z,18.30
2023-02-04T01:03:41.096Z,17.60
2023-02-04T01:04:41.086Z,15.20
2023-02-04T01:05:41.119Z,19.50
2023-02-04T01:06:41.088Z,17.10
2023-02-04T01:07:41.106Z,16.40
2023-02-04T01:08:41.068Z,16.50
2023-02-04T01:09:41.055Z,19.40
2023-02-04T01:10:41.042Z,18.30
2023-02-04T01:11:41.038Z,17.60
2023-02-04T01:12:41.032Z,17.40
2023-02-04T01:13:41.025Z,18.30
2023-02-04T01:14:41.015Z,17.80
2023-02-04T01:15:41.015Z,18.80
2023-02-04T01:16:41.043Z,20.30
2023-02-04T01:17:41.003Z,18.20
2023-02-04T01:18:40.986Z,18.60
2023-02-04T01:19:40.985Z,20.20
2023-02-04T01:20:40.982Z,19.80
2023-02-04T01:21:41.127Z,19.00
2023-02-04T01:22:40.972Z,17.10
2023-02-04T01:23:40.952Z,21.30
2023-02-04T01:24:40.940Z,19.30
2023-02-04T01:25:40.935Z,16.00
2023-02-04T01:26:40.931Z,19.50
2023-02-04T01:27:40.995Z,19.80
2023-02-04T01:28:40.913Z,17.80
2023-02-04T01:29:40.914Z,19.10
2023-02-04T01:30:40.946Z,18.80
2023-02-04T01:31:40.917Z,15.70
2023-02-04T01:32:40.884Z,18.70
2023-02-04T01:33:40.880Z,17.60
2023-02-04T01:34:40.874Z,17.20
2023-02-04T01:35:40.872Z,20.80
2023-02-04T01:36:40.861Z,16.90
2023-02-04T01:37:40.872Z,16.80
2023-02-04T01:38:40.840Z,22.30
2023-02-04T01:39:40.836Z,17.00
2023-02-04T01:40:40.825Z,21.00
2023-02-04T01:41:40.825Z,17.90
2023-02-04T01:42:40.825Z,20.80
2023-02-04T01:43:40.804Z,20.30
2023-02-04T01:44:40.841Z,18.00
2023-02-04T01:45:40.853Z,17.30
2023-02-04T01:46:40.779Z,17.60
2023-02-04T01:47:40.777Z,17.10
2023-02-04T01:48:40.775Z,19.30
2023-02-04T01:49:40.796Z,16.40
2023-02-04T01:50:40.750Z,17.70
2023-02-04T01:51:40.744Z,18.90
2023-02-04T01:52:40.736Z,18.50
2023-02-04T01:53:40.753Z,18.90
2023-02-04T01:54:40.722Z,18.30
2023-02-04T01:55:40.719Z,19.80
2023-02-04T01:56:40.707Z,17.60
2023-02-04T01:57:40.706Z,15.70
2023-02-04T01:58:40.693Z,19.60
2023-02-04T01:59:40.685Z,19.80
2023-02-04T02:00:40.678Z,17.80
2023-02-04T02:01:40.674Z,20.50
2023-02-04T02:02:40.853Z,19.40
2023-02-04T02:03:40.659Z,17.60
2023-02-04T02:04:40.649Z,18.60
2023-02-04T02:05:40.644Z,19.20
2023-02-04T02:06:40.634Z,19.50
2023-02-04T02:07:40.633Z,19.10
2023-02-04T02:08:40.620Z,17.70
2023-02-04T02:09:40.635Z,17.70
2023-02-04T02:10:40.605Z,20.20
2023-02-04T02:11:40.602Z,17.40
2023-02-04T02:12:40.593Z,17.00
2023-02-04T02:13:40.585Z,18.40
2023-02-04T02:14:40.580Z,18.50
2023-02-04T02:15:40.575Z,19.50
2023-02-04T02:16:40.582Z,16.70
2023-02-04T02:17:40.557Z,18.10
2023-02-04T02:18:40.548Z,17.90
2023-02-04T02:19:40.545Z,22.30
2023-02-04T02:20:40.532Z,21.40
2023-02-04T02:21:40.530Z,15.90
2023-02-04T02:22:40.516Z,21.20
2023-02-04T02:23:40.513Z,17.00
2023-02-04T02:24:40.504Z,22.40
2023-02-04T02:25:40.517Z,17.20
2023-02-04T02:26:40.490Z,18.60
2023-02-04T02:27:40.539Z,19.00
2023-02-04T02:28:40.477Z,18.10
2023-02-04T02:29:40.478Z,18.10
2023-02-04T02:30:40.604Z,17.30
2023-02-04T02:31:40.583Z,18.00
2023-02-04T02:32:40.450Z,17.60
2023-02-04T02:33:40.438Z,16.60
2023-02-04T02:34:40.434Z,16.20
2023-02-04T02:35:40.425Z,18.00
2023-02-04T02:36:40.422Z,19.60
2023-02-04T02:37:40.412Z,16.50
2023-02-04T02:38:40.403Z,17.30
2023-02-04T02:39:40.396Z,16.80
2023-02-04T02:40:40.409Z,19.00
2023-02-04T02:41:40.405Z,19.60
2023-02-04T02:42:40.379Z,19.00
2023-02-04T02:43:40.366Z,15.70
2023-02-04T02:44:40.364Z,18.60
2023-02-04T02:45:40.358Z,18.50
2023-02-04T02:46:40.352Z,21.50
2023-02-04T02:47:40.340Z,18.50
2023-02-04T02:48:40.680Z,19.40
2023-02-04T02:49:40.322Z,21.30
2023-02-04T02:50:40.319Z,20.20
2023-02-04T02:51:40.305Z,17.70
2023-02-04T02:52:40.303Z,17.50
2023-02-04T02:53:40.298Z,17.20
2023-02-04T02:54:40.286Z,20.50
2023-02-04T02:55:40.276Z,21.70
2023-02-04T02:56:40.271Z,19.60
2023-02-04T02:57:40.277Z,15.50
2023-02-04T02:58:40.254Z,15.70
2023-02-04T02:59:40.268Z,16.70
2023-02-04T03:00:40.247Z,17.10
2023-02-04T03:01:40.296Z,20.00
2023-02-04T03:02:40.254Z,17.30
2023-02-04T03:03:40.223Z,15.60
2023-02-04T03:04:40.213Z,17.20
2023-02-04T03:05:40.203Z,19.10
2023-02-04T03:06:40.194Z,19.00
2023-02-04T03:07:40.188Z,17.10
2023-02-04T03:08:40.188Z,15.40
2023-02-04T03:09:40.176Z,21.00
2023-02-04T03:10:40.168Z,15.60
2023-02-04T03:11:40.162Z,19.10
2023-02-04T03:12:40.165Z,17.40
2023-02-04T03:13:40.165Z,18.30
2023-02-04T03:14:40.139Z,15.80
2023-02-04T03:15:40.168Z,17.90
2023-02-04T03:16:40.125Z,19.40
2023-02-04T03:17:40.115Z,27.30
2023-02-04T03:18:40.112Z,18.20
2023-02-04T03:19:40.102Z,18.10
2023-02-04T03:20:40.096Z,19.40
2023-02-04T03:21:40.094Z,19.60
2023-02-04T03:22:40.083Z,15.10
2023-02-04T03:23:40.074Z,18.60
2023-02-04T03:24:40.069Z,16.60
2023-02-04T03:25:40.072Z,15.20
2023-02-04T03:26:40.055Z,20.50
2023-02-04T03:27:40.065Z,19.70
2023-02-04T03:28:40.046Z,17.60
2023-02-04T03:29:40.052Z,19.10
2023-02-04T03:30:40.137Z,19.50
2023-02-04T03:31:40.187Z,18.80
2023-02-04T03:32:40.014Z,16.30
2023-02-04T03:33:40.010Z,18.60
2023-02-04T03:34:40.001Z,19.10
2023-02-04T03:35:39.996Z,17.30
2023-02-04T03:36:39.992Z,18.20
2023-02-04T03:37:39.987Z,19.70
2023-02-04T03:38:39.978Z,18.20
2023-02-04T03:39:39.964Z,18.70
2023-02-04T03:40:39.959Z,20.20
2023-02-04T03:41:39.951Z,18.20
2023-02-04T03:42:39.944Z,17.20
2023-02-04T03:43:39.935Z,16.40
2023-02-04T03:44:39.927Z,18.40
2023-02-04T03:45:45.360Z,15.70
2023-02-04T03:46:39.941Z,19.30
2023-02-04T03:47:39.909Z,17.30
2023-02-04T03:48:39.903Z,15.40
2023-02-04T03:49:39.895Z,16.60
2023-02-04T03:50:39.894Z,18.10
2023-02-04T03:51:39.879Z,17.80
2023-02-04T03:52:39.875Z,14.40
2023-02-04T03:53:39.865Z,16.70
2023-02-04T03:54:39.855Z,15.30
2023-02-04T03:55:39.857Z,17.00
2023-02-04T03:56:39.842Z,18.50
2023-02-04T03:57:39.834Z,17.60
2023-02-04T03:58:39.827Z,17.70
2023-02-04T03:59:39.820Z,20.70
2023-02-04T04:00:39.822Z,17.40
2023-02-04T04:01:39.949Z,15.10
2023-02-04T04:02:39.830Z,16.70
2023-02-04T04:03:39.806Z,19.50
2023-02-04T04:04:39.788Z,16.30
2023-02-04T04:05:39.779Z,15.80
2023-02-04T04:06:39.788Z,16.70
2023-02-04T04:07:39.760Z,15.20
2023-02-04T04:08:39.789Z,13.90
2023-02-04T04:09:39.748Z,18.30
2023-02-04T04:10:41.936Z,16.30
2023-02-04T04:11:39.732Z,18.10
2023-02-04T04:12:39.745Z,18.40
2023-02-04T04:13:39.719Z,17.60
2023-02-04T04:14:39.712Z,17.50
2023-02-04T04:15:39.745Z,19.00
2023-02-04T04:16:39.714Z,15.20
2023-02-04T04:17:39.711Z,14.50
2023-02-04T04:18:39.682Z,16.00
2023-02-04T04:19:39.674Z,14.50
2023-02-04T04:20:39.682Z,15.80
2023-02-04T04:21:39.670Z,21.20
2023-02-04T04:22:39.663Z,16.50
2023-02-04T04:23:39.648Z,16.50
2023-02-04T04:24:39.646Z,15.20
2023-02-04T04:25:39.633Z,14.80
2023-02-04T04:26:39.634Z,17.00
2023-02-04T04:27:39.683Z,15.50
2023-02-04T04:28:39.610Z,16.90
2023-02-04T04:29:39.601Z,17.90
2023-02-04T04:30:39.610Z,18.70
2023-02-04T04:31:39.766Z,14.50
2023-02-04T04:32:39.578Z,16.00
2023-02-04T04:33:39.604Z,18.50
2023-02-04T04:34:39.563Z,17.20
2023-02-04T04:35:39.557Z,18.20
2023-02-04T04:36:39.546Z,16.70
2023-02-04T04:37:39.539Z,16.70
2023-02-04T04:38:39.534Z,17.80
2023-02-04T04:39:39.523Z,18.10
2023-02-04T04:40:39.533Z,15.10
2023-02-04T04:41:39.506Z,17.50
2023-02-04T04:42:39.501Z,19.80
2023-02-04T04:43:39.498Z,18.50
2023-02-04T04:44:39.488Z,16.70
2023-02-04T04:45:39.477Z,18.50
2023-02-04T04:46:39.588Z,15.40
2023-02-04T04:47:39.467Z,19.80
2023-02-04T04:48:39.472Z,15.90
2023-02-04T04:49:39.478Z,14.10
2023-02-04T04:50:39.440Z,17.50
2023-02-04T04:51:39.430Z,18.50
2023-02-04T04:52:39.432Z,16.20
2023-02-04T04:53:39.418Z,20.30
2023-02-04T04:54:39.412Z,16.40
2023-02-04T04:55:39.404Z,16.10
2023-02-04T04:56:39.398Z,15.20
2023-02-04T04:57:39.389Z,18.00
2023-02-04T04:58:39.385Z,21.10
2023-02-04T04:59:39.371Z,16.20
2023-02-04T05:00:39.407Z,17.30
2023-02-04T05:01:39.360Z,15.60
2023-02-04T05:02:39.354Z,16.40
2023-02-04T05:03:39.353Z,18.40
2023-02-04T05:04:39.415Z,16.30
2023-02-04T05:05:39.350Z,19.80
2023-02-04T05:06:39.327Z,16.50
2023-02-04T05:07:39.319Z,19.30
2023-02-04T05:08:39.312Z,16.10
2023-02-04T05:09:39.307Z,18.30
2023-02-04T05:10:39.302Z,19.50
2023-02-04T05:11:39.289Z,16.20
2023-02-04T05:12:39.284Z,18.80
2023-02-04T05:13:39.276Z,24.30
2023-02-04T05:14:39.270Z,14.00
2023-02-04T05:15:39.267Z,19.00
2023-02-04T05:16:39.276Z,16.90
2023-02-04T05:17:39.248Z,17.30
2023-02-04T05:18:39.241Z,17.80
2023-02-04T05:19:39.232Z,18.90
2023-02-04T05:20:39.226Z,17.50
2023-02-04T05:21:39.240Z,18.40
2023-02-04T05:22:39.215Z,19.00
2023-02-04T05:23:39.219Z,19.00
2023-02-04T05:24:39.197Z,18.60
2023-02-04T05:25:39.188Z,17.20
2023-02-04T05:26:39.185Z,17.10
2023-02-04T05:27:39.203Z,18.80
2023-02-04T05:28:39.169Z,17.40
2023-02-04T05:29:39.161Z,19.50
2023-02-04T05:30:39.193Z,16.20
2023-02-04T05:31:39.179Z,22.30
2023-02-04T05:32:39.138Z,19.00
2023-02-04T05:33:39.136Z,19.80
2023-02-04T05:34:39.981Z,18.10
2023-02-04T05:35:39.113Z,19.80
2023-02-04T05:36:39.122Z,21.50
2023-02-04T05:37:39.127Z,19.90
2023-02-04T05:38:39.100Z,20.70
2023-02-04T05:39:39.085Z,21.60
2023-02-04T05:40:39.082Z,17.40
2023-02-04T05:41:39.069Z,19.00
2023-02-04T05:42:39.062Z,21.30
2023-02-04T05:43:39.060Z,18.50
2023-02-04T05:44:39.053Z,18.90
2023-02-04T05:45:39.102Z,17.90
2023-02-04T05:46:39.036Z,18.10
2023-02-04T05:47:39.091Z,23.00
2023-02-04T05:48:39.017Z,18.60
2023-02-04T05:49:39.011Z,18.20
2023-02-04T05:50:39.004Z,22.00
2023-02-04T05:51:38.994Z,21.30
2023-02-04T05:52:38.988Z,20.20
2023-02-04T05:53:39.400Z,19.30
2023-02-04T05:54:38.974Z,17.20
2023-02-04T05:55:38.964Z,20.10
2023-02-04T05:56:38.971Z,21.00
2023-02-04T05:57:38.953Z,21.20
2023-02-04T05:58:40.023Z,18.80
2023-02-04T05:59:38.937Z,18.70
2023-02-04T06:00:38.936Z,18.30
2023-02-04T06:01:38.921Z,17.00
2023-02-04T06:02:38.925Z,17.50
2023-02-04T06:03:39.008Z,18.20
2023-02-04T06:04:38.961Z,17.10
2023-02-04T06:05:38.890Z,20.50
2023-02-04T06:06:38.885Z,19.30
2023-02-04T06:07:38.874Z,19.00
2023-02-04T06:08:38.869Z,18.20
2023-02-04T06:09:38.899Z,18.90
2023-02-04T06:10:38.864Z,19.60
2023-02-04T06:11:38.847Z,21.70
2023-02-04T06:12:38.842Z,19.60
2023-02-04T06:13:38.838Z,21.10
2023-02-04T06:14:38.837Z,23.00
2023-02-04T06:15:38.820Z,19.60
2023-02-04T06:16:38.901Z,18.50
2023-02-04T06:17:38.801Z,18.90
2023-02-04T06:18:38.802Z,20.00
2023-02-04T06:19:38.787Z,18.50
2023-02-04T06:20:38.785Z,18.20
2023-02-04T06:21:38.771Z,23.60
2023-02-04T06:22:38.798Z,21.70
2023-02-04T06:23:38.756Z,18.90
2023-02-04T06:24:38.752Z,21.80
2023-02-04T06:25:38.769Z,20.50
2023-02-04T06:26:38.737Z,25.60
2023-02-04T06:27:38.756Z,21.90
2023-02-04T06:28:38.722Z,21.20
2023-02-04T06:29:38.713Z,22.40
2023-02-04T06:30:38.724Z,23.00
2023-02-04T06:31:38.878Z,20.80
2023-02-04T06:32:38.691Z,20.50
2023-02-04T06:33:38.685Z,21.00
2023-02-04T06:34:38.686Z,23.20
2023-02-04T06:35:38.673Z,25.30
2023-02-04T06:36:38.673Z,19.50
2023-02-04T06:37:38.654Z,18.50
2023-02-04T06:38:38.656Z,20.80
2023-02-04T06:39:38.639Z,20.80
2023-02-04T06:40:38.637Z,26.70
2023-02-04T06:41:38.656Z,18.20
2023-02-04T06:42:38.636Z,19.90
2023-02-04T06:43:38.613Z,19.10
2023-02-04T06:44:38.605Z,19.60
2023-02-04T06:45:38.602Z,20.40
2023-02-04T06:46:38.586Z,16.80
2023-02-04T06:47:38.583Z,20.00
2023-02-04T06:48:38.584Z,21.50
2023-02-04T06:49:38.567Z,21.90
2023-02-04T06:50:38.562Z,20.20
2023-02-04T06:51:38.554Z,20.30
2023-02-04T06:52:38.542Z,21.80
2023-02-04T06:53:38.546Z,20.80
2023-02-04T06:54:38.526Z,18.50
2023-02-04T06:55:38.528Z,25.70
2023-02-04T06:56:38.516Z,17.40
2023-02-04T06:57:38.529Z,20.60
2023-02-04T06:58:38.504Z,19.60
2023-02-04T06:59:38.493Z,19.20
2023-02-04T07:00:38.651Z,19.80
2023-02-04T07:01:38.497Z,20.70
2023-02-04T07:02:38.510Z,21.00
2023-02-04T07:03:38.461Z,19.10
2023-02-04T07:04:38.461Z,17.40
2023-02-04T07:05:38.465Z,20.80
2023-02-04T07:06:38.439Z,18.30
2023-02-04T07:07:38.433Z,19.40
2023-02-04T07:08:38.435Z,18.50
2023-02-04T07:09:38.424Z,20.60
2023-02-04T07:10:38.410Z,20.80
2023-02-04T07:11:38.413Z,20.40
2023-02-04T07:12:38.396Z,18.80
2023-02-04T07:13:38.408Z,19.30
2023-02-04T07:14:38.408Z,20.00
2023-02-04T07:15:38.394Z,20.90
2023-02-04T07:16:38.369Z,19.00
2023-02-04T07:17:38.366Z,21.90
2023-02-04T07:18:38.359Z,20.90
2023-02-04T07:19:38.346Z,21.50
2023-02-04T07:20:38.336Z,19.50
2023-02-04T07:21:38.339Z,21.50
2023-02-04T07:22:38.323Z,20.60
2023-02-04T07:23:38.319Z,19.30
2023-02-04T07:24:38.315Z,19.50
2023-02-04T07:25:38.304Z,20.70
2023-02-04T07:26:38.291Z,20.30
2023-02-04T07:27:38.296Z,18.60
2023-02-04T07:28:38.284Z,22.50
2023-02-04T07:29:38.316Z,21.80
2023-02-04T07:30:38.432Z,20.40
2023-02-04T07:31:38.384Z,20.20
2023-02-04T07:32:38.246Z,24.00
2023-02-04T07:33:38.247Z,20.10
2023-02-04T07:34:38.236Z,20.90
2023-02-04T07:35:38.238Z,17.20
2023-02-04T07:36:38.254Z,21.40
2023-02-04T07:37:38.210Z,19.70
2023-02-04T07:38:38.200Z,16.70
2023-02-04T07:39:38.204Z,21.60
2023-02-04T07:40:38.190Z,20.40
2023-02-04T07:41:38.182Z,22.20
2023-02-04T07:42:38.178Z,24.10
2023-02-04T07:43:38.163Z,18.80
2023-02-04T07:44:38.159Z,21.50
2023-02-04T07:45:38.166Z,19.30
2023-02-04T07:46:38.223Z,19.50
2023-02-04T07:47:38.130Z,22.00
2023-02-04T07:48:38.121Z,18.00
2023-02-04T07:49:38.115Z,19.80
2023-02-04T07:50:38.108Z,18.40
2023-02-04T07:51:38.101Z,19.20
2023-02-04T07:52:38.097Z,18.50
2023-02-04T07:53:38.089Z,21.60
2023-02-04T07:54:38.082Z,22.00
2023-02-04T07:55:38.080Z,19.80
2023-02-04T07:56:38.074Z,20.10
2023-02-04T07:57:38.061Z,18.60
2023-02-04T07:58:38.049Z,18.10
2023-02-04T07:59:38.040Z,18.40
2023-02-04T08:00:38.039Z,21.10
2023-02-04T08:01:38.074Z,18.80
2023-02-04T08:02:38.103Z,19.40
2023-02-04T08:03:39.450Z,21.00
2023-02-04T08:04:38.005Z,22.70
2023-02-04T08:05:37.999Z,21.90
2023-02-04T08:06:37.992Z,19.90
2023-02-04T08:07:37.978Z,19.50
2023-02-04T08:08:37.970Z,20.60
2023-02-04T08:09:37.965Z,22.50
2023-02-04T08:10:37.954Z,22.00
2023-02-04T08:11:37.951Z,19.40
2023-02-04T08:12:37.960Z,19.80
2023-02-04T08:13:37.936Z,19.50
2023-02-04T08:14:37.928Z,21.80
2023-02-04T08:15:37.960Z,21.70
2023-02-04T08:16:37.910Z,20.70
2023-02-04T08:17:37.922Z,21.10
2023-02-04T08:18:37.894Z,20.20
2023-02-04T08:19:37.934Z,18.50
2023-02-04T08:20:37.878Z,18.50
2023-02-04T08:21:37.877Z,17.20
2023-02-04T08:22:37.874Z,17.50
2023-02-04T08:23:37.872Z,18.40
2023-02-04T08:24:37.849Z,22.20
2023-02-04T08:25:37.842Z,21.30
2023-02-04T08:26:37.836Z,20.50
2023-02-04T08:27:37.830Z,20.60
2023-02-04T08:28:37.820Z,21.30
2023-02-04T08:29:37.814Z,19.60
2023-02-04T08:30:37.857Z,22.80
2023-02-04T08:31:37.945Z,22.80
2023-02-04T08:32:37.797Z,22.80
2023-02-04T08:33:37.807Z,23.60
2023-02-04T08:34:37.776Z,22.70
2023-02-04T08:35:37.774Z,22.70
2023-02-04T08:36:37.808Z,21.90
2023-02-04T08:37:37.756Z,21.70
2023-02-04T08:38:37.772Z,24.00
2023-02-04T08:39:37.739Z,21.60
2023-02-04T08:40:37.729Z,21.30
2023-02-04T08:41:37.727Z,21.70
2023-02-04T08:42:37.714Z,22.30
2023-02-04T08:43:37.720Z,20.50
2023-02-04T08:44:37.709Z,23.60
2023-02-04T08:45:37.699Z,22.80
2023-02-04T08:46:37.720Z,21.10
2023-02-04T08:47:37.689Z,21.50
2023-02-04T08:48:37.683Z,21.80
2023-02-04T08:49:37.708Z,25.10
2023-02-04T08:50:39.061Z,25.20
2023-02-04T08:51:37.674Z,25.20
2023-02-04T08:52:37.674Z,22.70
2023-02-04T08:53:37.702Z,24.00
2023-02-04T08:54:37.655Z,23.40
2023-02-04T08:55:37.643Z,21.20
2023-02-04T08:56:38.088Z,23.50
2023-02-04T08:57:37.636Z,23.10
2023-02-04T08:58:37.625Z,21.90
2023-02-04T08:59:37.617Z,23.30
2023-02-04T09:00:37.682Z,23.50
2023-02-04T09:01:37.656Z,22.40
2023-02-04T09:02:37.615Z,23.20
2023-02-04T09:03:37.594Z,22.50
2023-02-04T09:04:37.586Z,24.40
2023-02-04T09:05:37.603Z,23.70
2023-02-04T09:06:37.575Z,23.60
2023-02-04T09:07:37.580Z,25.50
2023-02-04T09:08:37.561Z,23.90
2023-02-04T09:09:37.566Z,23.10
2023-02-04T09:10:37.552Z,24.50
2023-02-04T09:11:37.544Z,27.20
2023-02-04T09:12:37.538Z,27.00
2023-02-04T09:13:37.529Z,25.50
2023-02-04T09:14:37.521Z,22.80
2023-02-04T09:15:37.517Z,21.20
2023-02-04T09:16:37.556Z,25.80
2023-02-04T09:17:37.502Z,23.40
2023-02-04T09:18:37.494Z,26.00
2023-02-04T09:19:37.489Z,22.90
2023-02-04T09:20:37.480Z,24.60
2023-02-04T09:21:37.492Z,23.10
2023-02-04T09:22:37.468Z,27.00
2023-02-04T09:23:37.460Z,23.00
2023-02-04T09:24:37.454Z,25.60
2023-02-04T09:25:37.456Z,23.30
2023-02-04T09:26:37.438Z,21.50
2023-02-04T09:27:37.446Z,23.80
2023-02-04T09:28:37.435Z,24.40
2023-02-04T09:29:37.421Z,23.80
2023-02-04T09:30:37.454Z,24.20
2023-02-04T09:31:37.530Z,24.70
2023-02-04T09:32:37.401Z,24.60
2023-02-04T09:33:37.396Z,22.40
2023-02-04T09:34:37.398Z,23.80
2023-02-04T09:35:37.392Z,23.80
2023-02-04T09:36:37.372Z,22.60
2023-02-04T09:37:37.402Z,25.00
2023-02-04T09:38:37.364Z,24.40
2023-02-04T09:39:37.352Z,28.10
2023-02-04T09:40:37.355Z,27.00
2023-02-04T09:41:39.029Z,26.70
2023-02-04T09:42:37.333Z,22.80
2023-02-04T09:43:37.676Z,25.50
2023-02-04T09:44:37.318Z,24.80
2023-02-04T09:45:37.346Z,23.80
2023-02-04T09:46:37.311Z,29.50
2023-02-04T09:47:37.296Z,28.90
2023-02-04T09:48:37.289Z,27.80
2023-02-04T09:49:37.285Z,25.10
2023-02-04T09:50:37.281Z,27.20
2023-02-04T09:51:37.278Z,24.70
2023-02-04T09:52:37.259Z,28.00
2023-02-04T09:53:37.283Z,28.10
2023-02-04T09:54:37.241Z,25.30
2023-02-04T09:55:37.241Z,28.00
2023-02-04T09:56:37.229Z,28.00
2023-02-04T09:57:37.218Z,25.40
2023-02-04T09:58:37.206Z,26.70
2023-02-04T09:59:37.203Z,27.60
2023-02-04T10:00:37.189Z,28.00
2023-02-04T10:01:37.183Z,28.20
2023-02-04T10:02:37.170Z,28.90
2023-02-04T10:03:37.234Z,26.50
2023-02-04T10:04:37.159Z,27.90
2023-02-04T10:05:37.150Z,28.10
2023-02-04T10:06:37.140Z,26.00
2023-02-04T10:07:37.140Z,29.60
2023-02-04T10:08:37.126Z,25.60
2023-02-04T10:09:37.138Z,27.70
2023-02-04T10:10:37.116Z,27.70
2023-02-04T10:11:37.104Z,27.70
2023-02-04T10:12:37.098Z,29.80
2023-02-04T10:13:37.092Z,28.30
2023-02-04T10:14:37.079Z,24.60
2023-02-04T10:15:37.073Z,31.50
2023-02-04T10:16:37.093Z,27.70
2023-02-04T10:17:37.060Z,31.80
2023-02-04T10:18:37.053Z,30.30
2023-02-04T10:19:37.049Z,29.30
2023-02-04T10:20:37.035Z,28.40
2023-02-04T10:21:37.035Z,25.50
2023-02-04T10:22:37.023Z,25.80
2023-02-04T10:23:37.016Z,27.00
2023-02-04T10:24:37.011Z,31.70
2023-02-04T10:25:37.019Z,25.60
2023-02-04T10:26:36.992Z,25.20
2023-02-04T10:27:36.992Z,27.70
2023-02-04T10:28:36.986Z,30.00
2023-02-04T10:29:36.979Z,29.20
2023-02-04T10:30:37.064Z,29.90
2023-02-04T10:31:37.045Z,26.60
2023-02-04T10:32:36.955Z,29.30
2023-02-04T10:33:36.982Z,31.00
2023-02-04T10:34:36.941Z,26.40
2023-02-04T10:35:36.936Z,32.00
2023-02-04T10:36:36.930Z,28.40
2023-02-04T10:37:36.925Z,27.80
2023-02-04T10:38:36.919Z,27.90
2023-02-04T10:39:36.910Z,30.90
2023-02-04T10:40:36.902Z,27.50
2023-02-04T10:41:36.919Z,29.30
2023-02-04T10:42:36.888Z,26.30
2023-02-04T10:43:36.883Z,25.60
2023-02-04T10:44:36.874Z,31.80
2023-02-04T10:45:36.870Z,29.20
2023-02-04T10:46:36.860Z,28.80
2023-02-04T10:47:36.864Z,30.00
2023-02-04T10:48:36.852Z,27.40
2023-02-04T10:49:36.876Z,32.20
2023-02-04T10:50:36.834Z,26.50
2023-02-04T10:51:36.829Z,30.10
2023-02-04T10:52:36.822Z,29.90
2023-02-04T10:53:36.826Z,27.80
2023-02-04T10:54:36.805Z,31.40
2023-02-04T10:55:36.809Z,29.10
2023-02-04T10:56:36.803Z,29.80
2023-02-04T10:57:36.812Z,26.20
2023-02-04T10:58:36.799Z,32.70
2023-02-04T10:59:36.782Z,30.40
2023-02-04T11:00:36.767Z,31.10
2023-02-04T11:01:36.828Z,33.90
2023-02-04T11:02:36.763Z,30.70
2023-02-04T11:03:36.786Z,32.10
2023-02-04T11:04:36.747Z,30.90
2023-02-04T11:05:36.734Z,33.90
2023-02-04T11:06:36.726Z,31.90
2023-02-04T11:07:36.724Z,29.40
2023-02-04T11:08:36.719Z,32.50
2023-02-04T11:09:36.706Z,32.20
2023-02-04T11:10:36.701Z,35.10
2023-02-04T11:11:36.691Z,34.50
2023-02-04T11:12:36.687Z,36.30
2023-02-04T11:13:36.696Z,38.20
2023-02-04T11:14:36.678Z,34.20
2023-02-04T11:15:36.688Z,40.00
2023-02-04T11:16:36.661Z,37.20
2023-02-04T11:17:36.652Z,34.70
2023-02-04T11:18:36.646Z,36.10
2023-02-04T11:19:36.642Z,35.90
2023-02-04T11:20:36.637Z,36.30
2023-02-04T11:21:36.632Z,33.60
2023-02-04T11:22:36.636Z,38.70
2023-02-04T11:23:36.973Z,39.10
2023-02-04T11:24:36.606Z,35.30
2023-02-04T11:25:36.607Z,39.20
2023-02-04T11:26:36.599Z,36.80
2023-02-04T11:27:36.587Z,35.80
2023-02-04T11:28:36.736Z,35.90
2023-02-04T11:29:36.592Z,38.60
2023-02-04T11:30:36.620Z,34.30
2023-02-04T11:31:36.664Z,33.90
2023-02-04T11:32:36.557Z,34.50
2023-02-04T11:33:36.901Z,36.20
2023-02-04T11:34:36.538Z,38.30
2023-02-04T11:35:36.529Z,35.20
2023-02-04T11:36:36.525Z,39.60
2023-02-04T11:37:36.523Z,39.50
2023-02-04T11:38:36.513Z,35.70
2023-02-04T11:39:36.506Z,38.40
2023-02-04T11:40:36.495Z,35.70
2023-02-04T11:41:36.489Z,36.70
2023-02-04T11:42:36.484Z,35.60
2023-02-04T11:43:36.472Z,34.40
2023-02-04T11:44:36.466Z,40.40
2023-02-04T11:45:36.482Z,38.50
2023-02-04T11:46:36.460Z,32.90
2023-02-04T11:47:36.445Z,37.00
2023-02-04T11:48:36.439Z,36.10
2023-02-04T11:49:36.459Z,35.80
2023-02-04T11:50:36.428Z,33.10
2023-02-04T11:51:36.423Z,35.80
2023-02-04T11:52:36.412Z,34.70
2023-02-04T11:53:36.403Z,37.50
2023-02-04T11:54:36.405Z,37.70
2023-02-04T11:55:36.398Z,35.60
2023-02-04T11:56:36.393Z,38.50
2023-02-04T11:57:36.380Z,37.70
2023-02-04T11:58:36.378Z,39.80
2023-02-04T11:59:36.373Z,40.40
2023-02-04T12:00:36.364Z,36.70
2023-02-04T12:01:36.376Z,38.60
2023-02-04T12:02:36.404Z,40.70
2023-02-04T12:03:36.399Z,37.10
2023-02-04T12:04:36.340Z,37.90
2023-02-04T12:05:36.333Z,38.20
2023-02-04T12:06:36.330Z,42.10
2023-02-04T12:07:36.318Z,37.10
2023-02-04T12:08:36.316Z,38.80
2023-02-04T12:09:36.299Z,41.50
2023-02-04T12:10:36.293Z,41.30
2023-02-04T12:11:36.289Z,39.50
2023-02-04T12:12:36.281Z,41.90
2023-02-04T12:13:36.274Z,42.80
2023-02-04T12:14:36.268Z,40.20
2023-02-04T12:15:36.784Z,39.00
2023-02-04T12:16:36.260Z,43.00
2023-02-04T12:17:36.265Z,43.10
2023-02-04T12:18:36.241Z,41.20
2023-02-04T12:19:36.236Z,36.60
2023-02-04T12:20:36.230Z,38.90
2023-02-04T12:21:36.221Z,39.10
2023-02-04T12:22:36.215Z,37.00
2023-02-04T12:23:36.209Z,38.40
2023-02-04T12:24:36.209Z,34.30
2023-02-04T12:25:36.192Z,35.50
2023-02-04T12:26:36.203Z,35.50
2023-02-04T12:27:36.178Z,34.40
2023-02-04T12:28:36.188Z,36.20
2023-02-04T12:29:36.169Z,36.20
2023-02-04T12:30:36.167Z,36.70
2023-02-04T12:31:36.329Z,39.60
2023-02-04T12:32:36.151Z,37.10
2023-02-04T12:33:36.162Z,36.30
2023-02-04T12:34:36.140Z,38.10
2023-02-04T12:35:36.125Z,38.40
2023-02-04T12:36:36.117Z,39.00
2023-02-04T12:37:36.111Z,37.80
2023-02-04T12:38:36.138Z,36.60
2023-02-04T12:39:36.108Z,32.60
2023-02-04T12:40:36.094Z,41.00
2023-02-04T12:41:36.085Z,39.00
2023-02-04T12:42:36.081Z,37.60
2023-02-04T12:43:36.070Z,39.50
2023-02-04T12:44:36.067Z,35.20
2023-02-04T12:45:36.057Z,37.90
2023-02-04T12:46:36.109Z,34.70
2023-02-04T12:47:36.045Z,37.50
2023-02-04T12:48:36.150Z,38.60
2023-02-04T12:49:36.048Z,40.70
2023-02-04T12:50:36.042Z,39.60
2023-02-04T12:51:36.036Z,35.50
2023-02-04T12:52:36.047Z,36.30